sensor_id;sensor_type;location;lat;lon;timestamp;temperature;humidity
14739;DHT22;7461;52.440;13.540;2023-05-29T00:01:51;14.20;99.90
14739;DHT22;7461;52.440;13.540;2023-05-29T00:04:18;14.20;99.90
14739;DHT22;7461;52.440;13.540;2023-05-29T00:06:47;14.10;99.90
14739;DHT22;7461;52.440;13.540;2023-05-29T00:09:18;14.10;99.90
14739;DHT22;7461;52.440;13.540;2023-05-29T00:11:45;14.00;99.90
14739;DHT22;7461;52.440;13.540;2023-05-29T00:14:17;13.90;99.90
14739;DHT22;7461;52.440;13.540;2023-05-29T00:16:45;13.90;99.90
14739;DHT22;7461;52.440;13.540;2023-05-29T00:19:13;13.80;99.90
14739;DHT22;7461;52.440;13.540;2023-05-29T00:21:42;13.70;99.90
14739;DHT22;7461;52.440;13.540;2023-05-29T00:24:14;13.70;99.90
14739;DHT22;7461;52.440;13.540;2023-05-29T00:26:45;13.60;99.90
14739;DHT22;7461;52.440;13.540;2023-05-29T00:29:12;13.60;99.90
14739;DHT22;7461;52.440;13.540;2023-05-29T00:31:40;13.60;99.90
14739;DHT22;7461;52.440;13.540;2023-05-29T00:34:07;13.40;99.90
14739;DHT22;7461;52.440;13.540;2023-05-29T00:36:34;13.40;99.90
14739;DHT22;7461;52.440;13.540;2023-05-29T00:39:02;13.40;99.90
14739;DHT22;7461;52.440;13.540;2023-05-29T00:41:30;13.30;99.90
14739;DHT22;7461;52.440;13.540;2023-05-29T00:43:57;13.30;99.90
14739;DHT22;7461;52.440;13.540;2023-05-29T00:46:25;13.20;99.90
14739;DHT22;7461;52.440;13.540;2023-05-29T00:48:52;13.20;99.90
14739;DHT22;7461;52.440;13.540;2023-05-29T00:51:20;13.20;99.90
14739;DHT22;7461;52.440;13.540;2023-05-29T00:53:50;13.20;99.90
14739;DHT22;7461;52.440;13.540;2023-05-29T00:56:17;13.10;99.90
14739;DHT22;7461;52.440;13.540;2023-05-29T00:58:48;13.10;99.90
14739;DHT22;7461;52.440;13.540;2023-05-29T01:01:17;13.10;99.90
14739;DHT22;7461;52.440;13.540;2023-05-29T01:03:45;13.00;99.90
14739;DHT22;7461;52.440;13.540;2023-05-29T01:06:14;13.00;99.90
14739;DHT22;7461;52.440;13.540;2023-05-29T01:08:42;13.00;99.90
14739;DHT22;7461;52.440;13.540;2023-05-29T01:11:19;13.10;99.90
14739;DHT22;7461;52.440;13.540;2023-05-29T01:13:50;13.00;99.90
14739;DHT22;7461;52.440;13.540;2023-05-29T01:16:24;13.00;99.90
14739;DHT22;7461;52.440;13.540;2023-05-29T01:18:57;12.90;99.90
14739;DHT22;7461;52.440;13.540;2023-05-29T01:21:42;12.80;99.90
14739;DHT22;7461;52.440;13.540;2023-05-29T01:24:14;12.80;99.90
14739;DHT22;7461;52.440;13.540;2023-05-29T01:26:52;12.80;99.90
14739;DHT22;7461;52.440;13.540;2023-05-29T01:29:24;12.80;99.90
14739;DHT22;7461;52.440;13.540;2023-05-29T01:31:54;12.80;99.90
14739;DHT22;7461;52.440;13.540;2023-05-29T01:34:23;12.80;99.90
14739;DHT22;7461;52.440;13.540;2023-05-29T01:36:52;12.70;99.90
14739;DHT22;7461;52.440;13.540;2023-05-29T01:39:20;12.70;99.90
14739;DHT22;7461;52.440;13.540;2023-05-29T01:41:51;12.70;99.90
14739;DHT22;7461;52.440;13.540;2023-05-29T01:44:21;12.70;99.90
14739;DHT22;7461;52.440;13.540;2023-05-29T01:46:49;12.60;99.90
14739;DHT22;7461;52.440;13.540;2023-05-29T01:49:17;12.50;99.90
14739;DHT22;7461;52.440;13.540;2023-05-29T01:51:44;12.50;99.90
14739;DHT22;7461;52.440;13.540;2023-05-29T01:54:12;12.40;99.90
14739;DHT22;7461;52.440;13.540;2023-05-29T01:56:39;12.30;99.90
14739;DHT22;7461;52.440;13.540;2023-05-29T01:59:08;12.40;99.90
14739;DHT22;7461;52.440;13.540;2023-05-29T02:01:38;12.40;99.90
14739;DHT22;7461;52.440;13.540;2023-05-29T02:04:05;12.30;99.90
14739;DHT22;7461;52.440;13.540;2023-05-29T02:06:32;12.20;99.90
14739;DHT22;7461;52.440;13.540;2023-05-29T02:09:00;12.20;99.90
14739;DHT22;7461;52.440;13.540;2023-05-29T02:11:28;12.20;99.90
14739;DHT22;7461;52.440;13.540;2023-05-29T02:13:55;12.20;99.90
14739;DHT22;7461;52.440;13.540;2023-05-29T02:16:24;12.10;99.90
14739;DHT22;7461;52.440;13.540;2023-05-29T02:18:53;12.00;99.90
14739;DHT22;7461;52.440;13.540;2023-05-29T02:21:20;12.00;99.90
14739;DHT22;7461;52.440;13.540;2023-05-29T02:23:47;11.90;99.90
14739;DHT22;7461;52.440;13.540;2023-05-29T02:26:14;11.90;99.90
14739;DHT22;7461;52.440;13.540;2023-05-29T02:28:42;11.80;99.90
14739;DHT22;7461;52.440;13.540;2023-05-29T02:31:10;11.90;99.90
14739;DHT22;7461;52.440;13.540;2023-05-29T02:33:40;11.90;99.90
14739;DHT22;7461;52.440;13.540;2023-05-29T02:36:07;11.90;99.90
14739;DHT22;7461;52.440;13.540;2023-05-29T02:38:37;11.90;99.90
14739;DHT22;7461;52.440;13.540;2023-05-29T02:41:05;11.90;99.90
14739;DHT22;7461;52.440;13.540;2023-05-29T02:43:32;11.80;99.90
14739;DHT22;7461;52.440;13.540;2023-05-29T02:45:59;11.80;99.90
14739;DHT22;7461;52.440;13.540;2023-05-29T02:48:26;11.70;99.90
14739;DHT22;7461;52.440;13.540;2023-05-29T02:50:56;11.70;99.90
14739;DHT22;7461;52.440;13.540;2023-05-29T02:53:23;11.70;99.90
14739;DHT22;7461;52.440;13.540;2023-05-29T02:55:50;11.70;99.90
14739;DHT22;7461;52.440;13.540;2023-05-29T02:58:18;11.70;99.90
14739;DHT22;7461;52.440;13.540;2023-05-29T03:00:46;11.70;99.90
14739;DHT22;7461;52.440;13.540;2023-05-29T03:03:14;11.70;99.90
14739;DHT22;7461;52.440;13.540;2023-05-29T03:05:40;11.70;99.90
14739;DHT22;7461;52.440;13.540;2023-05-29T03:08:09;11.60;99.90
14739;DHT22;7461;52.440;13.540;2023-05-29T03:10:36;11.60;99.90
14739;DHT22;7461;52.440;13.540;2023-05-29T03:13:03;11.60;99.90
14739;DHT22;7461;52.440;13.540;2023-05-29T03:15:30;11.60;99.90
14739;DHT22;7461;52.440;13.540;2023-05-29T03:17:57;11.60;99.90
14739;DHT22;7461;52.440;13.540;2023-05-29T03:20:24;11.60;99.90
14739;DHT22;7461;52.440;13.540;2023-05-29T03:22:51;11.60;99.90
14739;DHT22;7461;52.440;13.540;2023-05-29T03:25:21;11.60;99.90
14739;DHT22;7461;52.440;13.540;2023-05-29T03:27:48;11.60;99.90
14739;DHT22;7461;52.440;13.540;2023-05-29T03:30:17;11.60;99.90
14739;DHT22;7461;52.440;13.540;2023-05-29T03:32:46;11.50;99.90
14739;DHT22;7461;52.440;13.540;2023-05-29T03:35:13;11.50;99.90
14739;DHT22;7461;52.440;13.540;2023-05-29T03:37:40;11.50;99.90
14739;DHT22;7461;52.440;13.540;2023-05-29T03:40:08;11.50;99.90
14739;DHT22;7461;52.440;13.540;2023-05-29T03:42:37;11.60;99.90
14739;DHT22;7461;52.440;13.540;2023-05-29T03:45:05;11.60;99.90
14739;DHT22;7461;52.440;13.540;2023-05-29T03:47:32;11.60;99.90
14739;DHT22;7461;52.440;13.540;2023-05-29T03:49:59;11.70;99.90
14739;DHT22;7461;52.440;13.540;2023-05-29T03:52:26;11.70;99.90
14739;DHT22;7461;52.440;13.540;2023-05-29T03:54:53;11.70;99.90
14739;DHT22;7461;52.440;13.540;2023-05-29T03:57:20;11.80;99.90
14739;DHT22;7461;52.440;13.540;2023-05-29T03:59:48;11.80;99.90
14739;DHT22;7461;52.440;13.540;2023-05-29T04:02:15;11.80;99.90
14739;DHT22;7461;52.440;13.540;2023-05-29T04:04:42;11.80;99.90
14739;DHT22;7461;52.440;13.540;2023-05-29T04:07:10;11.90;99.90
14739;DHT22;7461;52.440;13.540;2023-05-29T04:09:37;11.90;99.90
14739;DHT22;7461;52.440;13.540;2023-05-29T04:12:04;11.90;99.90
14739;DHT22;7461;52.440;13.540;2023-05-29T04:14:32;12.00;99.90
14739;DHT22;7461;52.440;13.540;2023-05-29T04:17:00;12.00;99.90
14739;DHT22;7461;52.440;13.540;2023-05-29T04:19:27;12.00;99.90
14739;DHT22;7461;52.440;13.540;2023-05-29T04:21:54;12.10;99.90
14739;DHT22;7461;52.440;13.540;2023-05-29T04:24:21;12.20;99.90
14739;DHT22;7461;52.440;13.540;2023-05-29T04:26:50;12.30;99.90
14739;DHT22;7461;52.440;13.540;2023-05-29T04:29:17;12.30;99.90
14739;DHT22;7461;52.440;13.540;2023-05-29T04:31:45;12.40;99.90
14739;DHT22;7461;52.440;13.540;2023-05-29T04:34:14;12.50;99.90
14739;DHT22;7461;52.440;13.540;2023-05-29T04:36:42;12.50;99.90
14739;DHT22;7461;52.440;13.540;2023-05-29T04:39:10;12.50;99.90
14739;DHT22;7461;52.440;13.540;2023-05-29T04:41:37;12.60;99.90
14739;DHT22;7461;52.440;13.540;2023-05-29T04:44:06;12.70;99.90
14739;DHT22;7461;52.440;13.540;2023-05-29T04:46:33;12.70;99.90
14739;DHT22;7461;52.440;13.540;2023-05-29T04:49:01;12.80;99.90
14739;DHT22;7461;52.440;13.540;2023-05-29T04:51:31;12.80;99.90
14739;DHT22;7461;52.440;13.540;2023-05-29T04:53:58;12.90;99.90
14739;DHT22;7461;52.440;13.540;2023-05-29T04:56:25;12.90;99.90
14739;DHT22;7461;52.440;13.540;2023-05-29T04:58:52;13.00;99.90
14739;DHT22;7461;52.440;13.540;2023-05-29T05:01:19;13.10;99.90
14739;DHT22;7461;52.440;13.540;2023-05-29T05:03:46;13.10;99.90
14739;DHT22;7461;52.440;13.540;2023-05-29T05:06:13;13.20;99.90
14739;DHT22;7461;52.440;13.540;2023-05-29T05:08:44;13.20;99.90
14739;DHT22;7461;52.440;13.540;2023-05-29T05:11:11;13.30;99.90
14739;DHT22;7461;52.440;13.540;2023-05-29T05:13:40;13.30;99.90
14739;DHT22;7461;52.440;13.540;2023-05-29T05:16:08;13.40;99.90
14739;DHT22;7461;52.440;13.540;2023-05-29T05:18:35;13.50;99.90
14739;DHT22;7461;52.440;13.540;2023-05-29T05:21:03;13.60;99.90
14739;DHT22;7461;52.440;13.540;2023-05-29T05:23:31;13.70;99.90
14739;DHT22;7461;52.440;13.540;2023-05-29T05:26:00;13.70;99.90
14739;DHT22;7461;52.440;13.540;2023-05-29T05:28:27;13.80;99.90
14739;DHT22;7461;52.440;13.540;2023-05-29T05:30:54;13.80;99.90
14739;DHT22;7461;52.440;13.540;2023-05-29T05:33:21;13.90;99.90
14739;DHT22;7461;52.440;13.540;2023-05-29T05:35:48;14.00;99.90
14739;DHT22;7461;52.440;13.540;2023-05-29T05:38:15;14.10;99.90
14739;DHT22;7461;52.440;13.540;2023-05-29T05:40:43;14.20;99.90
14739;DHT22;7461;52.440;13.540;2023-05-29T05:43:12;14.30;99.90
14739;DHT22;7461;52.440;13.540;2023-05-29T05:45:38;14.40;99.90
14739;DHT22;7461;52.440;13.540;2023-05-29T05:48:07;14.50;99.90
14739;DHT22;7461;52.440;13.540;2023-05-29T05:50:35;14.60;99.90
14739;DHT22;7461;52.440;13.540;2023-05-29T05:53:02;14.70;99.90
14739;DHT22;7461;52.440;13.540;2023-05-29T05:55:29;14.70;99.90
14739;DHT22;7461;52.440;13.540;2023-05-29T05:57:56;14.80;99.90
14739;DHT22;7461;52.440;13.540;2023-05-29T06:00:26;14.90;99.90
14739;DHT22;7461;52.440;13.540;2023-05-29T06:02:54;15.00;99.90
14739;DHT22;7461;52.440;13.540;2023-05-29T06:05:23;15.00;99.90
14739;DHT22;7461;52.440;13.540;2023-05-29T06:07:50;15.10;99.90
14739;DHT22;7461;52.440;13.540;2023-05-29T06:10:18;15.20;99.90
14739;DHT22;7461;52.440;13.540;2023-05-29T06:12:45;15.20;99.90
14739;DHT22;7461;52.440;13.540;2023-05-29T06:15:12;15.30;99.90
14739;DHT22;7461;52.440;13.540;2023-05-29T06:17:41;15.30;99.90
14739;DHT22;7461;52.440;13.540;2023-05-29T06:20:09;15.40;99.90
14739;DHT22;7461;52.440;13.540;2023-05-29T06:22:37;15.40;99.90
14739;DHT22;7461;52.440;13.540;2023-05-29T06:25:09;15.50;99.90
14739;DHT22;7461;52.440;13.540;2023-05-29T06:27:37;15.60;99.90
14739;DHT22;7461;52.440;13.540;2023-05-29T06:30:09;15.70;99.90
14739;DHT22;7461;52.440;13.540;2023-05-29T06:32:40;15.80;99.90
14739;DHT22;7461;52.440;13.540;2023-05-29T06:35:08;15.90;99.90
14739;DHT22;7461;52.440;13.540;2023-05-29T06:37:36;15.90;99.90
14739;DHT22;7461;52.440;13.540;2023-05-29T06:40:05;16.00;99.90
14739;DHT22;7461;52.440;13.540;2023-05-29T06:42:34;16.10;99.90
14739;DHT22;7461;52.440;13.540;2023-05-29T06:45:02;16.20;99.90
14739;DHT22;7461;52.440;13.540;2023-05-29T06:47:29;16.30;99.70
14739;DHT22;7461;52.440;13.540;2023-05-29T06:49:57;16.40;98.80
14739;DHT22;7461;52.440;13.540;2023-05-29T06:52:25;16.40;98.20
14739;DHT22;7461;52.440;13.540;2023-05-29T06:54:52;16.40;98.60
14739;DHT22;7461;52.440;13.540;2023-05-29T06:57:21;16.50;98.40
14739;DHT22;7461;52.440;13.540;2023-05-29T06:59:48;16.50;97.90
14739;DHT22;7461;52.440;13.540;2023-05-29T07:02:15;16.60;96.60
14739;DHT22;7461;52.440;13.540;2023-05-29T07:04:42;16.60;96.10
14739;DHT22;7461;52.440;13.540;2023-05-29T07:07:10;16.70;96.20
14739;DHT22;7461;52.440;13.540;2023-05-29T07:09:39;16.80;95.70
14739;DHT22;7461;52.440;13.540;2023-05-29T07:12:07;17.00;96.50
14739;DHT22;7461;52.440;13.540;2023-05-29T07:14:34;17.20;96.10
14739;DHT22;7461;52.440;13.540;2023-05-29T07:17:04;17.20;95.60
14739;DHT22;7461;52.440;13.540;2023-05-29T07:19:31;17.20;96.00
14739;DHT22;7461;52.440;13.540;2023-05-29T07:21:59;17.30;94.30
14739;DHT22;7461;52.440;13.540;2023-05-29T07:24:31;17.30;95.10
14739;DHT22;7461;52.440;13.540;2023-05-29T07:27:10;17.30;93.70
14739;DHT22;7461;52.440;13.540;2023-05-29T07:29:39;17.40;94.50
14739;DHT22;7461;52.440;13.540;2023-05-29T07:32:06;17.50;92.50
14739;DHT22;7461;52.440;13.540;2023-05-29T07:34:43;17.50;91.10
14739;DHT22;7461;52.440;13.540;2023-05-29T07:37:28;17.60;91.50
14739;DHT22;7461;52.440;13.540;2023-05-29T07:39:57;17.60;91.70
14739;DHT22;7461;52.440;13.540;2023-05-29T07:42:24;17.80;92.20
14739;DHT22;7461;52.440;13.540;2023-05-29T07:44:51;17.90;92.00
14739;DHT22;7461;52.440;13.540;2023-05-29T07:47:31;18.00;90.90
14739;DHT22;7461;52.440;13.540;2023-05-29T07:49:58;18.00;91.00
14739;DHT22;7461;52.440;13.540;2023-05-29T07:52:25;18.00;90.10
14739;DHT22;7461;52.440;13.540;2023-05-29T07:54:53;18.10;90.20
14739;DHT22;7461;52.440;13.540;2023-05-29T07:57:21;18.10;91.20
14739;DHT22;7461;52.440;13.540;2023-05-29T08:00:03;18.30;89.70
14739;DHT22;7461;52.440;13.540;2023-05-29T08:02:40;18.50;89.60
14739;DHT22;7461;52.440;13.540;2023-05-29T08:05:08;18.50;85.40
14739;DHT22;7461;52.440;13.540;2023-05-29T08:07:36;18.60;86.20
14739;DHT22;7461;52.440;13.540;2023-05-29T08:10:14;18.60;87.30
14739;DHT22;7461;52.440;13.540;2023-05-29T08:13:33;18.70;84.10
14739;DHT22;7461;52.440;13.540;2023-05-29T08:16:08;18.60;83.80
14739;DHT22;7461;52.440;13.540;2023-05-29T08:18:38;18.60;84.90
14739;DHT22;7461;52.440;13.540;2023-05-29T08:21:18;18.50;82.20
14739;DHT22;7461;52.440;13.540;2023-05-29T08:23:51;18.50;84.00
14739;DHT22;7461;52.440;13.540;2023-05-29T08:26:18;18.50;82.70
14739;DHT22;7461;52.440;13.540;2023-05-29T08:29:05;18.50;81.90
14739;DHT22;7461;52.440;13.540;2023-05-29T08:31:32;18.60;82.10
14739;DHT22;7461;52.440;13.540;2023-05-29T08:34:00;18.50;80.70
14739;DHT22;7461;52.440;13.540;2023-05-29T08:36:41;18.60;83.50
14739;DHT22;7461;52.440;13.540;2023-05-29T08:39:11;18.60;82.70
14739;DHT22;7461;52.440;13.540;2023-05-29T08:41:44;18.70;83.10
14739;DHT22;7461;52.440;13.540;2023-05-29T08:44:45;18.80;80.70
14739;DHT22;7461;52.440;13.540;2023-05-29T08:47:42;18.80;81.90
14739;DHT22;7461;52.440;13.540;2023-05-29T08:50:23;18.90;80.10
14739;DHT22;7461;52.440;13.540;2023-05-29T08:52:57;19.00;79.00
14739;DHT22;7461;52.440;13.540;2023-05-29T08:55:49;19.00;78.80
14739;DHT22;7461;52.440;13.540;2023-05-29T08:58:28;19.20;79.20
14739;DHT22;7461;52.440;13.540;2023-05-29T09:01:16;19.40;80.20
14739;DHT22;7461;52.440;13.540;2023-05-29T09:03:47;19.60;77.60
14739;DHT22;7461;52.440;13.540;2023-05-29T09:06:14;19.70;77.40
14739;DHT22;7461;52.440;13.540;2023-05-29T09:08:49;19.70;76.00
14739;DHT22;7461;52.440;13.540;2023-05-29T09:11:18;19.70;75.70
14739;DHT22;7461;52.440;13.540;2023-05-29T09:13:46;19.70;76.20
14739;DHT22;7461;52.440;13.540;2023-05-29T09:16:22;19.60;74.70
14739;DHT22;7461;52.440;13.540;2023-05-29T09:19:31;19.70;76.90
14739;DHT22;7461;52.440;13.540;2023-05-29T09:22:07;19.90;75.50
14739;DHT22;7461;52.440;13.540;2023-05-29T09:24:37;20.10;75.40
14739;DHT22;7461;52.440;13.540;2023-05-29T09:27:18;20.10;74.50
14739;DHT22;7461;52.440;13.540;2023-05-29T09:29:50;20.30;74.90
14739;DHT22;7461;52.440;13.540;2023-05-29T09:32:34;20.40;73.50
14739;DHT22;7461;52.440;13.540;2023-05-29T09:35:15;20.60;73.40
14739;DHT22;7461;52.440;13.540;2023-05-29T09:38:14;20.70;72.90
14739;DHT22;7461;52.440;13.540;2023-05-29T09:41:11;20.70;71.90
14739;DHT22;7461;52.440;13.540;2023-05-29T09:43:45;20.70;70.60
14739;DHT22;7461;52.440;13.540;2023-05-29T09:46:16;20.70;71.80
14739;DHT22;7461;52.440;13.540;2023-05-29T09:48:49;20.90;72.50
14739;DHT22;7461;52.440;13.540;2023-05-29T09:51:24;20.90;70.20
14739;DHT22;7461;52.440;13.540;2023-05-29T09:53:52;20.90;70.30
14739;DHT22;7461;52.440;13.540;2023-05-29T09:56:23;21.00;70.70
14739;DHT22;7461;52.440;13.540;2023-05-29T09:58:56;21.10;70.40
14739;DHT22;7461;52.440;13.540;2023-05-29T10:01:27;21.10;69.60
14739;DHT22;7461;52.440;13.540;2023-05-29T10:03:55;21.00;70.90
14739;DHT22;7461;52.440;13.540;2023-05-29T10:06:22;21.10;71.70
14739;DHT22;7461;52.440;13.540;2023-05-29T10:08:50;20.80;69.10
14739;DHT22;7461;52.440;13.540;2023-05-29T10:11:21;20.90;70.10
14739;DHT22;7461;52.440;13.540;2023-05-29T10:13:59;20.90;68.90
14739;DHT22;7461;52.440;13.540;2023-05-29T10:16:29;21.10;70.60
14739;DHT22;7461;52.440;13.540;2023-05-29T10:19:06;21.20;69.90
14739;DHT22;7461;52.440;13.540;2023-05-29T10:21:37;21.50;70.10
14739;DHT22;7461;52.440;13.540;2023-05-29T10:24:07;21.50;67.10
14739;DHT22;7461;52.440;13.540;2023-05-29T10:26:37;21.70;68.30
14739;DHT22;7461;52.440;13.540;2023-05-29T10:29:13;21.80;64.10
14739;DHT22;7461;52.440;13.540;2023-05-29T10:31:48;21.80;65.60
14739;DHT22;7461;52.440;13.540;2023-05-29T10:34:26;21.70;64.60
14739;DHT22;7461;52.440;13.540;2023-05-29T10:37:03;21.80;65.70
14739;DHT22;7461;52.440;13.540;2023-05-29T10:39:34;22.10;64.00
14739;DHT22;7461;52.440;13.540;2023-05-29T10:42:01;21.90;64.80
14739;DHT22;7461;52.440;13.540;2023-05-29T10:44:39;21.70;62.30
14739;DHT22;7461;52.440;13.540;2023-05-29T10:47:09;21.30;64.20
14739;DHT22;7461;52.440;13.540;2023-05-29T10:49:39;21.20;64.40
14739;DHT22;7461;52.440;13.540;2023-05-29T10:52:06;21.10;64.50
14739;DHT22;7461;52.440;13.540;2023-05-29T10:54:54;20.90;64.80
14739;DHT22;7461;52.440;13.540;2023-05-29T10:57:22;20.80;65.50
14739;DHT22;7461;52.440;13.540;2023-05-29T11:00:04;20.70;65.50
14739;DHT22;7461;52.440;13.540;2023-05-29T11:02:38;20.60;65.10
14739;DHT22;7461;52.440;13.540;2023-05-29T11:05:23;20.70;66.30
14739;DHT22;7461;52.440;13.540;2023-05-29T11:07:57;20.90;66.60
14739;DHT22;7461;52.440;13.540;2023-05-29T11:10:59;20.90;66.40
14739;DHT22;7461;52.440;13.540;2023-05-29T11:13:32;20.80;66.20
14739;DHT22;7461;52.440;13.540;2023-05-29T11:16:13;20.90;64.20
14739;DHT22;7461;52.440;13.540;2023-05-29T11:18:42;20.80;63.90
14739;DHT22;7461;52.440;13.540;2023-05-29T11:21:33;20.80;62.20
14739;DHT22;7461;52.440;13.540;2023-05-29T11:24:01;21.00;61.40
14739;DHT22;7461;52.440;13.540;2023-05-29T11:26:31;21.20;62.10
14739;DHT22;7461;52.440;13.540;2023-05-29T11:28:59;21.20;61.10
14739;DHT22;7461;52.440;13.540;2023-05-29T11:31:28;21.20;61.30
14739;DHT22;7461;52.440;13.540;2023-05-29T11:34:00;21.10;62.10
14739;DHT22;7461;52.440;13.540;2023-05-29T11:36:33;21.10;62.00
14739;DHT22;7461;52.440;13.540;2023-05-29T11:39:06;21.10;62.30
14739;DHT22;7461;52.440;13.540;2023-05-29T11:41:40;21.20;61.50
14739;DHT22;7461;52.440;13.540;2023-05-29T11:44:20;21.30;62.20
14739;DHT22;7461;52.440;13.540;2023-05-29T11:47:00;21.50;62.20
14739;DHT22;7461;52.440;13.540;2023-05-29T11:49:28;21.50;60.90
14739;DHT22;7461;52.440;13.540;2023-05-29T11:52:09;21.50;60.90
14739;DHT22;7461;52.440;13.540;2023-05-29T11:54:39;21.50;61.30
14739;DHT22;7461;52.440;13.540;2023-05-29T11:57:17;21.40;60.80
14739;DHT22;7461;52.440;13.540;2023-05-29T11:59:45;21.30;61.70
14739;DHT22;7461;52.440;13.540;2023-05-29T12:02:12;21.20;60.00
14739;DHT22;7461;52.440;13.540;2023-05-29T12:04:39;21.20;59.70
14739;DHT22;7461;52.440;13.540;2023-05-29T12:07:20;21.20;60.20
14739;DHT22;7461;52.440;13.540;2023-05-29T12:09:47;21.10;59.40
14739;DHT22;7461;52.440;13.540;2023-05-29T12:12:26;21.10;60.50
14739;DHT22;7461;52.440;13.540;2023-05-29T12:14:55;21.00;61.20
14739;DHT22;7461;52.440;13.540;2023-05-29T12:17:24;21.10;63.40
14739;DHT22;7461;52.440;13.540;2023-05-29T12:19:52;21.10;62.20
14739;DHT22;7461;52.440;13.540;2023-05-29T12:23:04;21.10;63.00
14739;DHT22;7461;52.440;13.540;2023-05-29T12:25:34;21.20;61.60
14739;DHT22;7461;52.440;13.540;2023-05-29T12:28:08;21.40;61.90
14739;DHT22;7461;52.440;13.540;2023-05-29T12:30:38;21.60;61.20
14739;DHT22;7461;52.440;13.540;2023-05-29T12:33:06;21.70;60.00
14739;DHT22;7461;52.440;13.540;2023-05-29T12:35:33;21.70;57.80
14739;DHT22;7461;52.440;13.540;2023-05-29T12:38:05;21.80;59.20
14739;DHT22;7461;52.440;13.540;2023-05-29T12:40:34;21.80;58.00
14739;DHT22;7461;52.440;13.540;2023-05-29T12:43:04;21.70;59.70
14739;DHT22;7461;52.440;13.540;2023-05-29T12:45:33;21.70;59.70
14739;DHT22;7461;52.440;13.540;2023-05-29T12:48:01;21.70;60.30
14739;DHT22;7461;52.440;13.540;2023-05-29T12:50:30;21.80;60.30
14739;DHT22;7461;52.440;13.540;2023-05-29T12:53:18;21.90;60.30
14739;DHT22;7461;52.440;13.540;2023-05-29T12:55:54;21.80;60.20
14739;DHT22;7461;52.440;13.540;2023-05-29T12:58:22;21.90;59.40
14739;DHT22;7461;52.440;13.540;2023-05-29T13:00:53;21.60;59.80
14739;DHT22;7461;52.440;13.540;2023-05-29T13:03:22;21.50;60.50
14739;DHT22;7461;52.440;13.540;2023-05-29T13:05:50;21.40;60.50
14739;DHT22;7461;52.440;13.540;2023-05-29T13:08:18;21.30;60.90
14739;DHT22;7461;52.440;13.540;2023-05-29T13:10:46;21.50;61.90
14739;DHT22;7461;52.440;13.540;2023-05-29T13:13:13;21.50;62.10
14739;DHT22;7461;52.440;13.540;2023-05-29T13:15:40;21.60;60.60
14739;DHT22;7461;52.440;13.540;2023-05-29T13:18:10;21.60;61.80
14739;DHT22;7461;52.440;13.540;2023-05-29T13:20:37;21.60;59.70
14739;DHT22;7461;52.440;13.540;2023-05-29T13:23:08;21.60;59.80
14739;DHT22;7461;52.440;13.540;2023-05-29T13:25:36;21.50;60.10
14739;DHT22;7461;52.440;13.540;2023-05-29T13:28:04;21.50;59.60
14739;DHT22;7461;52.440;13.540;2023-05-29T13:30:31;21.50;60.90
14739;DHT22;7461;52.440;13.540;2023-05-29T13:32:58;21.50;59.50
14739;DHT22;7461;52.440;13.540;2023-05-29T13:35:26;21.60;59.70
14739;DHT22;7461;52.440;13.540;2023-05-29T13:37:53;21.60;58.00
14739;DHT22;7461;52.440;13.540;2023-05-29T13:40:20;21.70;58.60
14739;DHT22;7461;52.440;13.540;2023-05-29T13:42:48;21.60;58.20
14739;DHT22;7461;52.440;13.540;2023-05-29T13:45:15;21.60;58.80
14739;DHT22;7461;52.440;13.540;2023-05-29T13:47:42;21.60;59.20
14739;DHT22;7461;52.440;13.540;2023-05-29T13:50:09;21.50;59.80
14739;DHT22;7461;52.440;13.540;2023-05-29T13:52:36;21.40;59.30
14739;DHT22;7461;52.440;13.540;2023-05-29T13:55:04;21.30;58.10
14739;DHT22;7461;52.440;13.540;2023-05-29T13:57:34;21.30;59.10
14739;DHT22;7461;52.440;13.540;2023-05-29T14:00:04;21.30;58.10
14739;DHT22;7461;52.440;13.540;2023-05-29T14:02:31;21.50;58.50
14739;DHT22;7461;52.440;13.540;2023-05-29T14:04:58;21.60;58.30
14739;DHT22;7461;52.440;13.540;2023-05-29T14:07:27;21.70;58.10
14739;DHT22;7461;52.440;13.540;2023-05-29T14:09:53;21.60;57.10
14739;DHT22;7461;52.440;13.540;2023-05-29T14:12:21;21.60;56.90
14739;DHT22;7461;52.440;13.540;2023-05-29T14:14:48;21.50;56.10
14739;DHT22;7461;52.440;13.540;2023-05-29T14:17:16;21.50;56.00
14739;DHT22;7461;52.440;13.540;2023-05-29T14:19:43;21.40;55.50
14739;DHT22;7461;52.440;13.540;2023-05-29T14:22:17;21.50;55.80
14739;DHT22;7461;52.440;13.540;2023-05-29T14:24:44;21.60;57.10
14739;DHT22;7461;52.440;13.540;2023-05-29T14:27:11;21.80;55.40
14739;DHT22;7461;52.440;13.540;2023-05-29T14:29:38;21.90;55.40
14739;DHT22;7461;52.440;13.540;2023-05-29T14:32:06;22.00;55.70
14739;DHT22;7461;52.440;13.540;2023-05-29T14:34:40;22.10;56.60
14739;DHT22;7461;52.440;13.540;2023-05-29T14:37:11;22.00;55.90
14739;DHT22;7461;52.440;13.540;2023-05-29T14:39:38;21.90;56.10
14739;DHT22;7461;52.440;13.540;2023-05-29T14:42:14;21.80;56.30
14739;DHT22;7461;52.440;13.540;2023-05-29T14:44:44;21.90;56.70
14739;DHT22;7461;52.440;13.540;2023-05-29T14:47:12;22.00;56.90
14739;DHT22;7461;52.440;13.540;2023-05-29T14:49:42;22.10;57.70
14739;DHT22;7461;52.440;13.540;2023-05-29T14:52:09;22.00;57.90
14739;DHT22;7461;52.440;13.540;2023-05-29T14:54:36;21.90;58.80
14739;DHT22;7461;52.440;13.540;2023-05-29T14:57:03;21.70;57.20
14739;DHT22;7461;52.440;13.540;2023-05-29T14:59:31;21.60;57.10
14739;DHT22;7461;52.440;13.540;2023-05-29T15:02:00;21.60;57.40
14739;DHT22;7461;52.440;13.540;2023-05-29T15:04:27;21.40;57.40
14739;DHT22;7461;52.440;13.540;2023-05-29T15:06:55;21.50;57.60
14739;DHT22;7461;52.440;13.540;2023-05-29T15:09:25;21.40;58.10
14739;DHT22;7461;52.440;13.540;2023-05-29T15:11:54;21.30;58.50
14739;DHT22;7461;52.440;13.540;2023-05-29T15:14:21;21.30;58.60
14739;DHT22;7461;52.440;13.540;2023-05-29T15:16:48;21.20;58.10
14739;DHT22;7461;52.440;13.540;2023-05-29T15:19:16;21.10;59.10
14739;DHT22;7461;52.440;13.540;2023-05-29T15:21:47;21.10;59.40
14739;DHT22;7461;52.440;13.540;2023-05-29T15:24:16;21.10;59.40
14739;DHT22;7461;52.440;13.540;2023-05-29T15:26:43;21.10;59.60
14739;DHT22;7461;52.440;13.540;2023-05-29T15:29:13;21.10;59.60
14739;DHT22;7461;52.440;13.540;2023-05-29T15:31:40;21.30;59.40
14739;DHT22;7461;52.440;13.540;2023-05-29T15:34:07;21.40;57.40
14739;DHT22;7461;52.440;13.540;2023-05-29T15:36:34;21.50;57.00
14739;DHT22;7461;52.440;13.540;2023-05-29T15:39:01;21.50;57.00
14739;DHT22;7461;52.440;13.540;2023-05-29T15:41:30;21.60;57.10
14739;DHT22;7461;52.440;13.540;2023-05-29T15:43:58;21.60;56.80
14739;DHT22;7461;52.440;13.540;2023-05-29T15:46:32;21.60;56.80
14739;DHT22;7461;52.440;13.540;2023-05-29T15:49:00;21.60;56.80
14739;DHT22;7461;52.440;13.540;2023-05-29T15:51:27;21.70;57.60